Decoded Metar for LFPT (PONTOISE in FRANCE) (IATA:POX) | Meteo·Mobile Aviation Weather
aviador You're here:

LFPT Decoded Metar

PONTOISE in FRANCE
Report Time2018-11-17 02:00:00
UTC Time2018-11-17 02:09:29
Flight Rules lifr LIFR
Wind080° at 08 kt
W.Decomp.*RWY 05: 6.9 kt HW 4.1 kt RCW
RWY 12: 6.2 kt HW 5 kt LCW
W.Rank080° ranks 22
Current wind is above 080° avg. (5.5)
Visibility3700 m
Phenomena:Mist
Clouds:Broken 004 Hf
Overcast 011 Hf
Ceiling400 ft
Temp04°C (ISA -10)
Dew Point04°C (100% RH)
AAT-0.2°C
QNH1025 hPa
Density Alt-1,224 ft
Elevation325 ft
Report Wrong Elevation
Raw Report
METAR LFPT 170200Z AUTO 08008KT 3700 BR BKN004 OVC011 04/04 Q1025=

Extra information for LFPT:More info

Metar Taf Metar & Taf Last 4 Metars F.Rules Stats Wind Profile Meteogram Temp Stats Airport Information Weather charts Add Link Nearby VenuesMetar ALERT Operation Metar Decoded Social comments